PWSweather.com
Personal Weather Stations
Station Observations
KOHAVON11
Long Road Station, Avon, OH 44011

Long Road StationAvon, OH 44011

Lat: 41.437, Lon: -82.0477

Elevation: 686

Station Type: Davis Vantage Pro2

http://www.avon-weather.com

High Low Average
Temperature 36.1°F2.3°C 31.7°F-0.2°C 34.6°F1.4°C
Dew Point 32.0°F0.0°C 27.1°F-2.7°C 30.1°F-1.1°C
Winds 8.0 mph 12.9 kmh 1.0 mph 1.6 kmh 4.0 mph SW6.4 kmh SW
Wind Gusts 18.0 mph29.0 kmh 6.0 mph9.7 kmh 11.0 mph17.7 kmh
Humidity 85% 82% 83%
Pressure 30.12 in1020.0 mb 29.98 in1015.2 mb -
Precipitation 0.21 in5.3 mm - -
Hour Temp Dew Point Humidity Winds Wind Gusts Pressure Precip Precip Rate Daily Precip Total
03:13 PM 36.1°F2.3°C 32.0°F0.0°C 85% 8.0 mph WSW12.9 kmh WSW 14.0 mph22.5 kmh 29.98 in1015.2 mb 0.00 in0.0 mm 0.00 in0.0 mm 0.21 in5.3 mm
03:18 PM 36.1°F2.3°C 32.0°F0.0°C 85% 8.0 mph WSW12.9 kmh WSW 18.0 mph29.0 kmh 29.98 in1015.2 mb 0.00 in0.0 mm 0.00 in0.0 mm 0.21 in5.3 mm
03:23 PM 36.1°F2.3°C 32.0°F0.0°C 85% 3.0 mph WSW4.8 kmh WSW 18.0 mph29.0 kmh 29.98 in1015.2 mb 0.00 in0.0 mm 0.00 in0.0 mm 0.21 in5.3 mm
03:28 PM 36.1°F2.3°C 31.7°F-0.2°C 84% 4.0 mph WSW6.4 kmh WSW 18.0 mph29.0 kmh 29.98 in1015.2 mb 0.00 in0.0 mm 0.00 in0.0 mm 0.21 in5.3 mm
03:33 PM 36.0°F2.2°C 31.6°F-0.2°C 84% 5.0 mph WSW8.0 kmh WSW 18.0 mph29.0 kmh 29.98 in1015.2 mb 0.00 in0.0 mm 0.00 in0.0 mm 0.21 in5.3 mm
03:38 PM 36.0°F2.2°C 31.6°F-0.2°C 84% 6.0 mph WSW9.7 kmh WSW 10.0 mph16.1 kmh 29.98 in1015.2 mb 0.00 in0.0 mm 0.00 in0.0 mm 0.21 in5.3 mm
03:43 PM 36.0°F2.2°C 31.6°F-0.2°C 84% 6.0 mph WSW9.7 kmh WSW 11.0 mph17.7 kmh 29.98 in1015.2 mb 0.00 in0.0 mm 0.00 in0.0 mm 0.21 in5.3 mm
03:48 PM 35.9°F2.2°C 31.8°F-0.1°C 85% 5.0 mph SW8.0 kmh SW 11.0 mph17.7 kmh 29.98 in1015.2 mb 0.00 in0.0 mm 0.00 in0.0 mm 0.21 in5.3 mm
03:53 PM 35.9°F2.2°C 31.8°F-0.1°C 85% 4.0 mph WSW6.4 kmh WSW 12.0 mph19.3 kmh 29.98 in1015.2 mb 0.00 in0.0 mm 0.00 in0.0 mm 0.21 in5.3 mm
03:58 PM 35.9°F2.2°C 31.8°F-0.1°C 85% 6.0 mph W9.7 kmh W 12.0 mph19.3 kmh 29.99 in1015.6 mb 0.00 in0.0 mm 0.00 in0.0 mm 0.21 in5.3 mm
04:03 PM 35.8°F2.1°C 31.7°F-0.2°C 85% 3.0 mph W4.8 kmh W 12.0 mph19.3 kmh 29.98 in1015.2 mb 0.00 in0.0 mm 0.00 in0.0 mm 0.21 in5.3 mm
04:08 PM 35.8°F2.1°C 31.7°F-0.2°C 85% 3.0 mph WSW4.8 kmh WSW 12.0 mph19.3 kmh 29.98 in1015.2 mb 0.00 in0.0 mm 0.00 in0.0 mm 0.21 in5.3 mm
04:13 PM 35.8°F2.1°C 31.7°F-0.2°C 85% 8.0 mph W12.9 kmh W 11.0 mph17.7 kmh 29.99 in1015.6 mb 0.00 in0.0 mm 0.00 in0.0 mm 0.21 in5.3 mm
04:18 PM 35.8°F2.1°C 31.7°F-0.2°C 85% 7.0 mph SW11.3 kmh SW 14.0 mph22.5 kmh 29.99 in1015.6 mb 0.00 in0.0 mm 0.00 in0.0 mm 0.21 in5.3 mm
04:23 PM 35.8°F2.1°C 31.4°F-0.3°C 84% 4.0 mph WSW6.4 kmh WSW 14.0 mph22.5 kmh 29.99 in1015.6 mb 0.00 in0.0 mm 0.00 in0.0 mm 0.21 in5.3 mm
04:28 PM 35.9°F2.2°C 31.5°F-0.3°C 84% 4.0 mph WSW6.4 kmh WSW 14.0 mph22.5 kmh 29.99 in1015.6 mb 0.00 in0.0 mm 0.00 in0.0 mm 0.21 in5.3 mm
04:33 PM 35.8°F2.1°C 31.4°F-0.3°C 84% 4.0 mph SW6.4 kmh SW 14.0 mph22.5 kmh 30.00 in1015.9 mb 0.00 in0.0 mm 0.00 in0.0 mm 0.21 in5.3 mm
04:38 PM 35.8°F2.1°C 31.4°F-0.3°C 84% 5.0 mph SW8.0 kmh SW 12.0 mph19.3 kmh 29.99 in1015.6 mb 0.00 in0.0 mm 0.00 in0.0 mm 0.21 in5.3 mm
04:43 PM 35.8°F2.1°C 31.4°F-0.3°C 84% 7.0 mph WSW11.3 kmh WSW 13.0 mph20.9 kmh 29.99 in1015.6 mb 0.00 in0.0 mm 0.00 in0.0 mm 0.21 in5.3 mm
04:48 PM 35.9°F2.2°C 31.5°F-0.3°C 84% 4.0 mph SW6.4 kmh SW 13.0 mph20.9 kmh 29.99 in1015.6 mb 0.00 in0.0 mm 0.00 in0.0 mm 0.21 in5.3 mm
04:53 PM 35.9°F2.2°C 31.5°F-0.3°C 84% 7.0 mph SW11.3 kmh SW 13.0 mph20.9 kmh 29.99 in1015.6 mb 0.00 in0.0 mm 0.00 in0.0 mm 0.21 in5.3 mm
04:58 PM 35.9°F2.2°C 31.5°F-0.3°C 84% 8.0 mph SW12.9 kmh SW 13.0 mph20.9 kmh 29.99 in1015.6 mb 0.00 in0.0 mm 0.00 in0.0 mm 0.21 in5.3 mm
05:03 PM 35.9°F2.2°C 31.2°F-0.4°C 83% 5.0 mph SW8.0 kmh SW 12.0 mph19.3 kmh 29.99 in1015.6 mb 0.00 in0.0 mm 0.00 in0.0 mm 0.21 in5.3 mm
05:08 PM 35.9°F2.2°C 31.2°F-0.4°C 83% 4.0 mph WSW6.4 kmh WSW 12.0 mph19.3 kmh 29.99 in1015.6 mb 0.00 in0.0 mm 0.00 in0.0 mm 0.21 in5.3 mm
05:13 PM 35.9°F2.2°C 31.2°F-0.4°C 83% 3.0 mph WSW4.8 kmh WSW 12.0 mph19.3 kmh 29.99 in1015.6 mb 0.00 in0.0 mm 0.00 in0.0 mm 0.21 in5.3 mm
05:18 PM 35.9°F2.2°C 31.2°F-0.4°C 83% 6.0 mph WSW9.7 kmh WSW 12.0 mph19.3 kmh 30.00 in1015.9 mb 0.00 in0.0 mm 0.00 in0.0 mm 0.21 in5.3 mm
05:23 PM 35.8°F2.1°C 31.1°F-0.5°C 83% 5.0 mph SW8.0 kmh SW 10.0 mph16.1 kmh 30.00 in1015.9 mb 0.00 in0.0 mm 0.00 in0.0 mm 0.21 in5.3 mm
05:28 PM 35.8°F2.1°C 31.1°F-0.5°C 83% 5.0 mph SW8.0 kmh SW 14.0 mph22.5 kmh 30.00 in1015.9 mb 0.00 in0.0 mm 0.00 in0.0 mm 0.21 in5.3 mm
05:33 PM 35.8°F2.1°C 31.1°F-0.5°C 83% 5.0 mph SW8.0 kmh SW 15.0 mph24.1 kmh 30.00 in1015.9 mb 0.00 in0.0 mm 0.00 in0.0 mm 0.21 in5.3 mm
05:38 PM 35.8°F2.1°C 31.1°F-0.5°C 83% 5.0 mph WSW8.0 kmh WSW 15.0 mph24.1 kmh 30.00 in1015.9 mb 0.00 in0.0 mm 0.00 in0.0 mm 0.21 in5.3 mm
05:43 PM 35.7°F2.1°C 30.7°F-0.7°C 82% 4.0 mph SW6.4 kmh SW 15.0 mph24.1 kmh 30.00 in1015.9 mb 0.00 in0.0 mm 0.00 in0.0 mm 0.21 in5.3 mm
05:48 PM 35.7°F2.1°C 30.7°F-0.7°C 82% 6.0 mph SW9.7 kmh SW 15.0 mph24.1 kmh 30.00 in1015.9 mb 0.00 in0.0 mm 0.00 in0.0 mm 0.21 in5.3 mm
05:53 PM 35.7°F2.1°C 30.7°F-0.7°C 82% 4.0 mph SW6.4 kmh SW 12.0 mph19.3 kmh 30.00 in1015.9 mb 0.00 in0.0 mm 0.00 in0.0 mm 0.21 in5.3 mm
05:58 PM 35.7°F2.1°C 30.7°F-0.7°C 82% 7.0 mph WSW11.3 kmh WSW 12.0 mph19.3 kmh 30.00 in1015.9 mb 0.00 in0.0 mm 0.00 in0.0 mm 0.21 in5.3 mm
06:03 PM 35.6°F2.0°C 30.6°F-0.8°C 82% 4.0 mph SW6.4 kmh SW 12.0 mph19.3 kmh 30.00 in1015.9 mb 0.00 in0.0 mm 0.00 in0.0 mm 0.21 in5.3 mm
06:08 PM 35.6°F2.0°C 30.6°F-0.8°C 82% 5.0 mph WSW8.0 kmh WSW 12.0 mph19.3 kmh 30.00 in1015.9 mb 0.00 in0.0 mm 0.00 in0.0 mm 0.21 in5.3 mm
06:13 PM 35.6°F2.0°C 30.6°F-0.8°C 82% 5.0 mph WSW8.0 kmh WSW 10.0 mph16.1 kmh 30.00 in1015.9 mb 0.00 in0.0 mm 0.00 in0.0 mm 0.21 in5.3 mm
06:18 PM 35.5°F1.9°C 30.5°F-0.8°C 82% 6.0 mph WSW9.7 kmh WSW 10.0 mph16.1 kmh 30.01 in1016.3 mb 0.00 in0.0 mm 0.00 in0.0 mm 0.21 in5.3 mm
06:23 PM 35.5°F1.9°C 30.5°F-0.8°C 82% 6.0 mph SW9.7 kmh SW 10.0 mph16.1 kmh 30.01 in1016.3 mb 0.00 in0.0 mm 0.00 in0.0 mm 0.21 in5.3 mm
06:28 PM 35.5°F1.9°C 30.5°F-0.8°C 82% 5.0 mph WSW8.0 kmh WSW 10.0 mph16.1 kmh 30.01 in1016.3 mb 0.00 in0.0 mm 0.00 in0.0 mm 0.21 in5.3 mm
06:33 PM 35.4°F1.9°C 30.4°F-0.9°C 82% 5.0 mph SW8.0 kmh SW 11.0 mph17.7 kmh 30.01 in1016.3 mb 0.00 in0.0 mm 0.00 in0.0 mm 0.21 in5.3 mm
06:38 PM 35.4°F1.9°C 30.4°F-0.9°C 82% 3.0 mph SW4.8 kmh SW 11.0 mph17.7 kmh 30.01 in1016.3 mb 0.00 in0.0 mm 0.00 in0.0 mm 0.21 in5.3 mm
06:43 PM 35.3°F1.8°C 30.6°F-0.8°C 83% 4.0 mph SW6.4 kmh SW 11.0 mph17.7 kmh 30.01 in1016.3 mb 0.00 in0.0 mm 0.00 in0.0 mm 0.21 in5.3 mm
06:48 PM 35.3°F1.8°C 30.6°F-0.8°C 83% 4.0 mph WSW6.4 kmh WSW 14.0 mph22.5 kmh 30.01 in1016.3 mb 0.00 in0.0 mm 0.00 in0.0 mm 0.21 in5.3 mm
06:53 PM 35.3°F1.8°C 30.6°F-0.8°C 83% 6.0 mph SW9.7 kmh SW 14.0 mph22.5 kmh 30.01 in1016.3 mb 0.00 in0.0 mm 0.00 in0.0 mm 0.21 in5.3 mm
06:58 PM 35.2°F1.8°C 30.6°F-0.8°C 83% 7.0 mph SW11.3 kmh SW 14.0 mph22.5 kmh 30.02 in1016.6 mb 0.00 in0.0 mm 0.00 in0.0 mm 0.21 in5.3 mm
07:03 PM 35.2°F1.8°C 30.6°F-0.8°C 83% 6.0 mph SW9.7 kmh SW 14.0 mph22.5 kmh 30.02 in1016.6 mb 0.00 in0.0 mm 0.00 in0.0 mm 0.21 in5.3 mm
07:08 PM 35.1°F1.7°C 30.5°F-0.8°C 83% 8.0 mph SW12.9 kmh SW 11.0 mph17.7 kmh 30.03 in1016.9 mb 0.00 in0.0 mm 0.00 in0.0 mm 0.21 in5.3 mm
07:13 PM 35.1°F1.7°C 30.5°F-0.8°C 83% 8.0 mph SW12.9 kmh SW 12.0 mph19.3 kmh 30.02 in1016.6 mb 0.00 in0.0 mm 0.00 in0.0 mm 0.21 in5.3 mm
07:18 PM 35.1°F1.7°C 30.5°F-0.8°C 83% 3.0 mph SW4.8 kmh SW 12.0 mph19.3 kmh 30.03 in1016.9 mb 0.00 in0.0 mm 0.00 in0.0 mm 0.21 in5.3 mm
07:23 PM 35.1°F1.7°C 30.5°F-0.8°C 83% 7.0 mph WSW11.3 kmh WSW 12.0 mph19.3 kmh 30.03 in1016.9 mb 0.00 in0.0 mm 0.00 in0.0 mm 0.21 in5.3 mm
07:28 PM 35.1°F1.7°C 30.5°F-0.8°C 83% 5.0 mph SW8.0 kmh SW 12.0 mph19.3 kmh 30.03 in1016.9 mb 0.00 in0.0 mm 0.00 in0.0 mm 0.21 in5.3 mm
07:33 PM 35.1°F1.7°C 30.5°F-0.8°C 83% 4.0 mph SW6.4 kmh SW 10.0 mph16.1 kmh 30.04 in1017.3 mb 0.00 in0.0 mm 0.00 in0.0 mm 0.21 in5.3 mm
07:38 PM 35.0°F1.7°C 30.4°F-0.9°C 83% 5.0 mph SW8.0 kmh SW 10.0 mph16.1 kmh 30.04 in1017.3 mb 0.00 in0.0 mm 0.00 in0.0 mm 0.21 in5.3 mm
07:43 PM 35.0°F1.7°C 30.4°F-0.9°C 83% 6.0 mph SSW9.7 kmh SSW 12.0 mph19.3 kmh 30.04 in1017.3 mb 0.00 in0.0 mm 0.00 in0.0 mm 0.21 in5.3 mm
07:48 PM 35.0°F1.7°C 30.4°F-0.9°C 83% 3.0 mph WSW4.8 kmh WSW 12.0 mph19.3 kmh 30.05 in1017.6 mb 0.00 in0.0 mm 0.00 in0.0 mm 0.21 in5.3 mm
07:53 PM 35.0°F1.7°C 30.4°F-0.9°C 83% 5.0 mph WSW8.0 kmh WSW 12.0 mph19.3 kmh 30.05 in1017.6 mb 0.00 in0.0 mm 0.00 in0.0 mm 0.21 in5.3 mm
07:58 PM 35.0°F1.7°C 30.4°F-0.9°C 83% 5.0 mph WSW8.0 kmh WSW 12.0 mph19.3 kmh 30.05 in1017.6 mb 0.00 in0.0 mm 0.00 in0.0 mm 0.21 in5.3 mm
08:03 PM 35.1°F1.7°C 30.5°F-0.8°C 83% 3.0 mph SW4.8 kmh SW 12.0 mph19.3 kmh 30.05 in1017.6 mb 0.00 in0.0 mm 0.00 in0.0 mm 0.21 in5.3 mm
08:08 PM 35.0°F1.7°C 30.4°F-0.9°C 83% 6.0 mph SW9.7 kmh SW 12.0 mph19.3 kmh 30.05 in1017.6 mb 0.00 in0.0 mm 0.00 in0.0 mm 0.21 in5.3 mm
08:13 PM 35.0°F1.7°C 30.4°F-0.9°C 83% 3.0 mph SW4.8 kmh SW 11.0 mph17.7 kmh 30.05 in1017.6 mb 0.00 in0.0 mm 0.00 in0.0 mm 0.21 in5.3 mm
08:18 PM 34.9°F1.6°C 30.3°F-0.9°C 83% 5.0 mph SW8.0 kmh SW 11.0 mph17.7 kmh 30.05 in1017.6 mb 0.00 in0.0 mm 0.00 in0.0 mm 0.21 in5.3 mm
08:23 PM 34.9°F1.6°C 30.3°F-0.9°C 83% 7.0 mph SW11.3 kmh SW 9.0 mph14.5 kmh 30.05 in1017.6 mb 0.00 in0.0 mm 0.00 in0.0 mm 0.21 in5.3 mm
08:28 PM 34.8°F1.6°C 30.2°F-1.0°C 83% 6.0 mph WSW9.7 kmh WSW 9.0 mph14.5 kmh 30.05 in1017.6 mb 0.00 in0.0 mm 0.00 in0.0 mm 0.21 in5.3 mm
08:33 PM 34.8°F1.6°C 30.2°F-1.0°C 83% 4.0 mph SW6.4 kmh SW 10.0 mph16.1 kmh 30.05 in1017.6 mb 0.00 in0.0 mm 0.00 in0.0 mm 0.21 in5.3 mm
08:38 PM 34.7°F1.5°C 30.1°F-1.1°C 83% 5.0 mph WSW8.0 kmh WSW 10.0 mph16.1 kmh 30.05 in1017.6 mb 0.00 in0.0 mm 0.00 in0.0 mm 0.21 in5.3 mm
08:43 PM 34.7°F1.5°C 30.4°F-0.9°C 84% 3.0 mph SW4.8 kmh SW 12.0 mph19.3 kmh 30.05 in1017.6 mb 0.00 in0.0 mm 0.00 in0.0 mm 0.21 in5.3 mm
08:48 PM 34.7°F1.5°C 30.4°F-0.9°C 84% 3.0 mph SW4.8 kmh SW 12.0 mph19.3 kmh 30.05 in1017.6 mb 0.00 in0.0 mm 0.00 in0.0 mm 0.21 in5.3 mm
08:53 PM 34.7°F1.5°C 30.4°F-0.9°C 84% 5.0 mph SW8.0 kmh SW 12.0 mph19.3 kmh 30.05 in1017.6 mb 0.00 in0.0 mm 0.00 in0.0 mm 0.21 in5.3 mm
08:58 PM 34.6°F1.4°C 30.3°F-0.9°C 84% 6.0 mph SSW9.7 kmh SSW 12.0 mph19.3 kmh 30.05 in1017.6 mb 0.00 in0.0 mm 0.00 in0.0 mm 0.21 in5.3 mm
09:03 PM 34.6°F1.4°C 30.3°F-0.9°C 84% 5.0 mph WSW8.0 kmh WSW 9.0 mph14.5 kmh 30.05 in1017.6 mb 0.00 in0.0 mm 0.00 in0.0 mm 0.21 in5.3 mm
09:08 PM 34.6°F1.4°C 30.3°F-0.9°C 84% 7.0 mph SW11.3 kmh SW 10.0 mph16.1 kmh 30.05 in1017.6 mb 0.00 in0.0 mm 0.00 in0.0 mm 0.21 in5.3 mm
09:13 PM 34.6°F1.4°C 30.3°F-0.9°C 84% 5.0 mph SW8.0 kmh SW 12.0 mph19.3 kmh 30.05 in1017.6 mb 0.00 in0.0 mm 0.00 in0.0 mm 0.21 in5.3 mm
09:18 PM 34.6°F1.4°C 30.3°F-0.9°C 84% 5.0 mph SW8.0 kmh SW 12.0 mph19.3 kmh 30.05 in1017.6 mb 0.00 in0.0 mm 0.00 in0.0 mm 0.21 in5.3 mm
09:23 PM 34.6°F1.4°C 30.3°F-0.9°C 84% 5.0 mph SW8.0 kmh SW 12.0 mph19.3 kmh 30.05 in1017.6 mb 0.00 in0.0 mm 0.00 in0.0 mm 0.21 in5.3 mm
09:28 PM 34.6°F1.4°C 30.3°F-0.9°C 84% 5.0 mph SW8.0 kmh SW 13.0 mph20.9 kmh 30.05 in1017.6 mb 0.00 in0.0 mm 0.00 in0.0 mm 0.21 in5.3 mm
09:33 PM 34.5°F1.4°C 30.2°F-1.0°C 84% 6.0 mph WSW9.7 kmh WSW 13.0 mph20.9 kmh 30.05 in1017.6 mb 0.00 in0.0 mm 0.00 in0.0 mm 0.21 in5.3 mm
09:38 PM 34.5°F1.4°C 30.2°F-1.0°C 84% 4.0 mph SW6.4 kmh SW 14.0 mph22.5 kmh 30.05 in1017.6 mb 0.00 in0.0 mm 0.00 in0.0 mm 0.21 in5.3 mm
09:43 PM 34.5°F1.4°C 30.2°F-1.0°C 84% 5.0 mph SW8.0 kmh SW 14.0 mph22.5 kmh 30.06 in1017.9 mb 0.00 in0.0 mm 0.00 in0.0 mm 0.21 in5.3 mm
09:48 PM 34.5°F1.4°C 30.2°F-1.0°C 84% 4.0 mph SW6.4 kmh SW 14.0 mph22.5 kmh 30.07 in1018.3 mb 0.00 in0.0 mm 0.00 in0.0 mm 0.21 in5.3 mm
09:53 PM 34.5°F1.4°C 30.2°F-1.0°C 84% 2.0 mph WSW3.2 kmh WSW 14.0 mph22.5 kmh 30.07 in1018.3 mb 0.00 in0.0 mm 0.00 in0.0 mm 0.21 in5.3 mm
09:58 PM 34.5°F1.4°C 30.2°F-1.0°C 84% 6.0 mph WSW9.7 kmh WSW 10.0 mph16.1 kmh 30.06 in1017.9 mb 0.00 in0.0 mm 0.00 in0.0 mm 0.21 in5.3 mm
10:03 PM 34.4°F1.3°C 30.1°F-1.1°C 84% 3.0 mph WSW4.8 kmh WSW 10.0 mph16.1 kmh 30.06 in1017.9 mb 0.00 in0.0 mm 0.00 in0.0 mm 0.21 in5.3 mm
10:08 PM 34.3°F1.3°C 30.0°F-1.1°C 84% 4.0 mph SW6.4 kmh SW 10.0 mph16.1 kmh 30.07 in1018.3 mb 0.00 in0.0 mm 0.00 in0.0 mm 0.21 in5.3 mm
10:13 PM 34.3°F1.3°C 30.0°F-1.1°C 84% 4.0 mph WSW6.4 kmh WSW 10.0 mph16.1 kmh 30.06 in1017.9 mb 0.00 in0.0 mm 0.00 in0.0 mm 0.21 in5.3 mm
10:18 PM 34.3°F1.3°C 30.0°F-1.1°C 84% 3.0 mph WSW4.8 kmh WSW 10.0 mph16.1 kmh 30.07 in1018.3 mb 0.00 in0.0 mm 0.00 in0.0 mm 0.21 in5.3 mm
10:23 PM 34.2°F1.2°C 29.6°F-1.3°C 83% 5.0 mph SW8.0 kmh SW 10.0 mph16.1 kmh 30.07 in1018.3 mb 0.00 in0.0 mm 0.00 in0.0 mm 0.21 in5.3 mm
10:28 PM 34.2°F1.2°C 29.6°F-1.3°C 83% 4.0 mph WSW6.4 kmh WSW 10.0 mph16.1 kmh 30.07 in1018.3 mb 0.00 in0.0 mm 0.00 in0.0 mm 0.21 in5.3 mm
10:33 PM 34.1°F1.2°C 29.5°F-1.4°C 83% 3.0 mph SW4.8 kmh SW 9.0 mph14.5 kmh 30.07 in1018.3 mb 0.00 in0.0 mm 0.00 in0.0 mm 0.21 in5.3 mm
10:38 PM 34.0°F1.1°C 29.4°F-1.4°C 83% 4.0 mph SW6.4 kmh SW 9.0 mph14.5 kmh 30.07 in1018.3 mb 0.00 in0.0 mm 0.00 in0.0 mm 0.21 in5.3 mm
10:43 PM 34.0°F1.1°C 29.4°F-1.4°C 83% 3.0 mph SW4.8 kmh SW 8.0 mph12.9 kmh 30.08 in1018.6 mb 0.00 in0.0 mm 0.00 in0.0 mm 0.21 in5.3 mm
10:48 PM 33.9°F1.1°C 29.3°F-1.5°C 83% 3.0 mph SW4.8 kmh SW 12.0 mph19.3 kmh 30.08 in1018.6 mb 0.00 in0.0 mm 0.00 in0.0 mm 0.21 in5.3 mm
10:53 PM 33.8°F1.0°C 29.2°F-1.6°C 83% 4.0 mph WSW6.4 kmh WSW 12.0 mph19.3 kmh 30.08 in1018.6 mb 0.00 in0.0 mm 0.00 in0.0 mm 0.21 in5.3 mm
10:58 PM 33.7°F0.9°C 29.1°F-1.6°C 83% 5.0 mph SW8.0 kmh SW 12.0 mph19.3 kmh 30.09 in1019.0 mb 0.00 in0.0 mm 0.00 in0.0 mm 0.21 in5.3 mm
11:03 PM 33.6°F0.9°C 29.0°F-1.7°C 83% 1.0 mph WSW1.6 kmh WSW 12.0 mph19.3 kmh 30.09 in1019.0 mb 0.00 in0.0 mm 0.00 in0.0 mm 0.21 in5.3 mm
11:08 PM 33.5°F0.8°C 28.9°F-1.7°C 83% 4.0 mph SW6.4 kmh SW 8.0 mph12.9 kmh 30.09 in1019.0 mb 0.00 in0.0 mm 0.00 in0.0 mm 0.21 in5.3 mm
11:13 PM 33.3°F0.7°C 28.7°F-1.8°C 83% 2.0 mph WSW3.2 kmh WSW 8.0 mph12.9 kmh 30.09 in1019.0 mb 0.00 in0.0 mm 0.00 in0.0 mm 0.21 in5.3 mm
11:18 PM 33.2°F0.7°C 28.6°F-1.9°C 83% 6.0 mph WSW9.7 kmh WSW 8.0 mph12.9 kmh 30.10 in1019.3 mb 0.00 in0.0 mm 0.00 in0.0 mm 0.21 in5.3 mm
11:23 PM 33.1°F0.6°C 28.5°F-1.9°C 83% 2.0 mph SW3.2 kmh SW 8.0 mph12.9 kmh 30.10 in1019.3 mb 0.00 in0.0 mm 0.00 in0.0 mm 0.21 in5.3 mm
11:28 PM 33.0°F0.6°C 28.4°F-2.0°C 83% 2.0 mph WSW3.2 kmh WSW 7.0 mph11.3 kmh 30.10 in1019.3 mb 0.00 in0.0 mm 0.00 in0.0 mm 0.21 in5.3 mm
11:33 PM 32.9°F0.5°C 28.3°F-2.1°C 83% 3.0 mph SW4.8 kmh SW 9.0 mph14.5 kmh 30.10 in1019.3 mb 0.00 in0.0 mm 0.00 in0.0 mm 0.21 in5.3 mm
11:38 PM 32.9°F0.5°C 28.3°F-2.1°C 83% 2.0 mph WSW3.2 kmh WSW 9.0 mph14.5 kmh 30.10 in1019.3 mb 0.00 in0.0 mm 0.00 in0.0 mm 0.21 in5.3 mm
11:43 PM 32.9°F0.5°C 28.3°F-2.1°C 83% 3.0 mph SW4.8 kmh SW 9.0 mph14.5 kmh 30.10 in1019.3 mb 0.00 in0.0 mm 0.00 in0.0 mm 0.21 in5.3 mm
11:48 PM 32.8°F0.4°C 28.2°F-2.1°C 83% 4.0 mph SW6.4 kmh SW 9.0 mph14.5 kmh 30.10 in1019.3 mb 0.00 in0.0 mm 0.00 in0.0 mm 0.21 in5.3 mm
11:53 PM 32.7°F0.4°C 28.1°F-2.2°C 83% 2.0 mph WSW3.2 kmh WSW 8.0 mph12.9 kmh 30.10 in1019.3 mb 0.00 in0.0 mm 0.00 in0.0 mm 0.21 in5.3 mm
11:58 PM 32.6°F0.3°C 28.0°F-2.2°C 83% 3.0 mph WSW4.8 kmh WSW 8.0 mph12.9 kmh 30.10 in1019.3 mb 0.00 in0.0 mm 0.00 in0.0 mm 0.21 in5.3 mm